sensor_id;sensor_type;location;lat;lon;timestamp;P1;durP1;ratioP1;P2;durP2;ratioP2
40162;SDS011;25881;47.462;19.304;2023-10-13T00:00:56;30.70;;;17.58;;
40162;SDS011;25881;47.462;19.304;2023-10-13T00:03:22;29.15;;;17.60;;
40162;SDS011;25881;47.462;19.304;2023-10-13T00:05:47;29.40;;;16.42;;
40162;SDS011;25881;47.462;19.304;2023-10-13T00:08:17;25.05;;;17.50;;
40162;SDS011;25881;47.462;19.304;2023-10-13T00:10:42;24.57;;;16.57;;
40162;SDS011;25881;47.462;19.304;2023-10-13T00:13:08;26.95;;;15.93;;
40162;SDS011;25881;47.462;19.304;2023-10-13T00:15:50;26.83;;;15.95;;
40162;SDS011;25881;47.462;19.304;2023-10-13T00:18:28;24.42;;;15.57;;
40162;SDS011;25881;47.462;19.304;2023-10-13T00:20:58;23.50;;;15.52;;
40162;SDS011;25881;47.462;19.304;2023-10-13T00:23:23;25.52;;;15.02;;
40162;SDS011;25881;47.462;19.304;2023-10-13T00:25:52;26.80;;;16.33;;
40162;SDS011;25881;47.462;19.304;2023-10-13T00:28:28;22.58;;;15.90;;
40162;SDS011;25881;47.462;19.304;2023-10-13T00:31:10;28.10;;;16.20;;
40162;SDS011;25881;47.462;19.304;2023-10-13T00:33:37;22.75;;;15.10;;
40162;SDS011;25881;47.462;19.304;2023-10-13T00:36:03;26.85;;;16.02;;
40162;SDS011;25881;47.462;19.304;2023-10-13T00:38:29;25.27;;;16.73;;
40162;SDS011;25881;47.462;19.304;2023-10-13T00:40:54;21.77;;;15.20;;
40162;SDS011;25881;47.462;19.304;2023-10-13T00:43:21;28.40;;;17.38;;
40162;SDS011;25881;47.462;19.304;2023-10-13T00:45:53;26.88;;;15.30;;
40162;SDS011;25881;47.462;19.304;2023-10-13T00:48:40;24.92;;;15.77;;
40162;SDS011;25881;47.462;19.304;2023-10-13T00:51:11;27.98;;;15.80;;
40162;SDS011;25881;47.462;19.304;2023-10-13T00:53:55;27.70;;;16.52;;
40162;SDS011;25881;47.462;19.304;2023-10-13T00:56:21;24.30;;;16.00;;
40162;SDS011;25881;47.462;19.304;2023-10-13T00:58:52;29.17;;;18.00;;
40162;SDS011;25881;47.462;19.304;2023-10-13T01:01:18;31.58;;;18.30;;
40162;SDS011;25881;47.462;19.304;2023-10-13T01:03:47;35.47;;;18.48;;
40162;SDS011;25881;47.462;19.304;2023-10-13T01:06:13;25.63;;;17.30;;
40162;SDS011;25881;47.462;19.304;2023-10-13T01:08:39;26.50;;;18.25;;
40162;SDS011;25881;47.462;19.304;2023-10-13T01:11:09;34.22;;;17.70;;
40162;SDS011;25881;47.462;19.304;2023-10-13T01:13:35;31.80;;;18.40;;
40162;SDS011;25881;47.462;19.304;2023-10-13T01:16:02;33.88;;;17.77;;
40162;SDS011;25881;47.462;19.304;2023-10-13T01:18:27;29.42;;;17.75;;
40162;SDS011;25881;47.462;19.304;2023-10-13T01:20:53;28.33;;;17.17;;
40162;SDS011;25881;47.462;19.304;2023-10-13T01:23:22;25.95;;;16.88;;
40162;SDS011;25881;47.462;19.304;2023-10-13T01:25:53;31.08;;;18.25;;
40162;SDS011;25881;47.462;19.304;2023-10-13T01:28:19;25.13;;;16.95;;
40162;SDS011;25881;47.462;19.304;2023-10-13T01:30:44;24.52;;;16.42;;
40162;SDS011;25881;47.462;19.304;2023-10-13T01:33:14;29.90;;;18.55;;
40162;SDS011;25881;47.462;19.304;2023-10-13T01:35:40;30.70;;;16.47;;
40162;SDS011;25881;47.462;19.304;2023-10-13T01:38:12;32.95;;;17.27;;
40162;SDS011;25881;47.462;19.304;2023-10-13T01:40:38;27.73;;;16.20;;
40162;SDS011;25881;47.462;19.304;2023-10-13T01:43:03;29.88;;;16.10;;
40162;SDS011;25881;47.462;19.304;2023-10-13T01:45:35;29.50;;;17.35;;
40162;SDS011;25881;47.462;19.304;2023-10-13T01:48:00;30.00;;;16.57;;
40162;SDS011;25881;47.462;19.304;2023-10-13T01:50:27;26.35;;;16.13;;
40162;SDS011;25881;47.462;19.304;2023-10-13T01:52:55;26.75;;;14.93;;
40162;SDS011;25881;47.462;19.304;2023-10-13T01:55:37;29.50;;;16.08;;
40162;SDS011;25881;47.462;19.304;2023-10-13T01:58:04;23.85;;;15.52;;
40162;SDS011;25881;47.462;19.304;2023-10-13T02:00:38;31.02;;;17.50;;
40162;SDS011;25881;47.462;19.304;2023-10-13T02:03:07;30.55;;;15.85;;
40162;SDS011;25881;47.462;19.304;2023-10-13T02:05:40;27.10;;;15.60;;
40162;SDS011;25881;47.462;19.304;2023-10-13T02:08:08;23.10;;;14.85;;
40162;SDS011;25881;47.462;19.304;2023-10-13T02:10:36;25.55;;;15.98;;
40162;SDS011;25881;47.462;19.304;2023-10-13T02:13:08;25.02;;;15.00;;
40162;SDS011;25881;47.462;19.304;2023-10-13T02:15:40;24.88;;;15.23;;
40162;SDS011;25881;47.462;19.304;2023-10-13T02:18:07;25.67;;;15.93;;
40162;SDS011;25881;47.462;19.304;2023-10-13T02:20:34;24.33;;;15.38;;
40162;SDS011;25881;47.462;19.304;2023-10-13T02:23:06;27.35;;;14.85;;
40162;SDS011;25881;47.462;19.304;2023-10-13T02:25:35;24.95;;;14.70;;
40162;SDS011;25881;47.462;19.304;2023-10-13T02:28:03;24.88;;;14.57;;
40162;SDS011;25881;47.462;19.304;2023-10-13T02:30:37;23.80;;;15.25;;
40162;SDS011;25881;47.462;19.304;2023-10-13T02:33:02;23.42;;;14.48;;
40162;SDS011;25881;47.462;19.304;2023-10-13T02:35:30;24.48;;;14.18;;
40162;SDS011;25881;47.462;19.304;2023-10-13T02:38:09;26.90;;;15.20;;
40162;SDS011;25881;47.462;19.304;2023-10-13T02:40:38;25.40;;;14.48;;
40162;SDS011;25881;47.462;19.304;2023-10-13T02:43:04;23.33;;;13.97;;
40162;SDS011;25881;47.462;19.304;2023-10-13T02:47:57;24.45;;;14.73;;
40162;SDS011;25881;47.462;19.304;2023-10-13T02:50:42;26.63;;;14.30;;
40162;SDS011;25881;47.462;19.304;2023-10-13T02:53:08;26.60;;;13.85;;
40162;SDS011;25881;47.462;19.304;2023-10-13T02:55:37;22.17;;;14.02;;
40162;SDS011;25881;47.462;19.304;2023-10-13T02:58:03;20.95;;;13.40;;
40162;SDS011;25881;47.462;19.304;2023-10-13T03:00:29;25.25;;;14.30;;
40162;SDS011;25881;47.462;19.304;2023-10-13T03:02:56;25.93;;;14.30;;
40162;SDS011;25881;47.462;19.304;2023-10-13T03:05:26;28.50;;;13.48;;
40162;SDS011;25881;47.462;19.304;2023-10-13T03:07:55;25.92;;;14.38;;
40162;SDS011;25881;47.462;19.304;2023-10-13T03:10:20;22.13;;;12.88;;
40162;SDS011;25881;47.462;19.304;2023-10-13T03:12:46;19.48;;;12.60;;
40162;SDS011;25881;47.462;19.304;2023-10-13T03:15:14;22.47;;;13.17;;
40162;SDS011;25881;47.462;19.304;2023-10-13T03:17:43;26.40;;;12.75;;
40162;SDS011;25881;47.462;19.304;2023-10-13T03:20:12;21.02;;;13.32;;
40162;SDS011;25881;47.462;19.304;2023-10-13T03:22:41;22.40;;;14.18;;
40162;SDS011;25881;47.462;19.304;2023-10-13T03:25:10;24.35;;;13.93;;
40162;SDS011;25881;47.462;19.304;2023-10-13T03:27:42;20.50;;;15.00;;
40162;SDS011;25881;47.462;19.304;2023-10-13T03:30:16;25.38;;;14.35;;
40162;SDS011;25881;47.462;19.304;2023-10-13T03:32:42;19.70;;;13.35;;
40162;SDS011;25881;47.462;19.304;2023-10-13T03:35:19;22.33;;;14.32;;
40162;SDS011;25881;47.462;19.304;2023-10-13T03:37:50;26.58;;;15.77;;
40162;SDS011;25881;47.462;19.304;2023-10-13T03:40:15;24.77;;;14.77;;
40162;SDS011;25881;47.462;19.304;2023-10-13T03:42:59;26.70;;;15.93;;
40162;SDS011;25881;47.462;19.304;2023-10-13T03:45:39;26.80;;;15.70;;
40162;SDS011;25881;47.462;19.304;2023-10-13T03:48:07;28.90;;;15.13;;
40162;SDS011;25881;47.462;19.304;2023-10-13T03:50:37;26.58;;;14.35;;
40162;SDS011;25881;47.462;19.304;2023-10-13T03:53:03;20.95;;;14.60;;
40162;SDS011;25881;47.462;19.304;2023-10-13T03:55:31;27.42;;;15.40;;
40162;SDS011;25881;47.462;19.304;2023-10-13T03:58:00;24.30;;;14.80;;
40162;SDS011;25881;47.462;19.304;2023-10-13T04:00:25;23.70;;;14.93;;
40162;SDS011;25881;47.462;19.304;2023-10-13T04:02:52;26.05;;;15.07;;
40162;SDS011;25881;47.462;19.304;2023-10-13T04:05:27;23.30;;;14.27;;
40162;SDS011;25881;47.462;19.304;2023-10-13T04:08:14;25.42;;;14.85;;
40162;SDS011;25881;47.462;19.304;2023-10-13T04:10:52;27.30;;;14.70;;
40162;SDS011;25881;47.462;19.304;2023-10-13T04:13:17;30.00;;;15.43;;
40162;SDS011;25881;47.462;19.304;2023-10-13T04:16:21;22.75;;;13.70;;
40162;SDS011;25881;47.462;19.304;2023-10-13T04:18:46;25.47;;;14.17;;
40162;SDS011;25881;47.462;19.304;2023-10-13T04:21:21;21.52;;;14.45;;
40162;SDS011;25881;47.462;19.304;2023-10-13T04:24:12;26.38;;;14.35;;
40162;SDS011;25881;47.462;19.304;2023-10-13T04:26:50;20.60;;;13.32;;
40162;SDS011;25881;47.462;19.304;2023-10-13T04:29:34;24.17;;;13.13;;
40162;SDS011;25881;47.462;19.304;2023-10-13T04:32:15;28.88;;;15.57;;
40162;SDS011;25881;47.462;19.304;2023-10-13T04:34:45;24.92;;;14.68;;
40162;SDS011;25881;47.462;19.304;2023-10-13T04:37:16;27.83;;;15.50;;
40162;SDS011;25881;47.462;19.304;2023-10-13T04:39:57;24.25;;;14.60;;
40162;SDS011;25881;47.462;19.304;2023-10-13T04:42:33;25.75;;;14.60;;
40162;SDS011;25881;47.462;19.304;2023-10-13T04:45:14;24.38;;;14.60;;
40162;SDS011;25881;47.462;19.304;2023-10-13T04:47:59;25.13;;;15.18;;
40162;SDS011;25881;47.462;19.304;2023-10-13T04:50:58;25.90;;;15.63;;
40162;SDS011;25881;47.462;19.304;2023-10-13T04:53:43;22.27;;;15.30;;
40162;SDS011;25881;47.462;19.304;2023-10-13T04:56:36;29.98;;;16.33;;
40162;SDS011;25881;47.462;19.304;2023-10-13T04:59:20;43.88;;;19.02;;
40162;SDS011;25881;47.462;19.304;2023-10-13T05:02:02;25.88;;;18.77;;
40162;SDS011;25881;47.462;19.304;2023-10-13T05:04:45;34.72;;;19.65;;
40162;SDS011;25881;47.462;19.304;2023-10-13T05:07:29;30.35;;;20.17;;
40162;SDS011;25881;47.462;19.304;2023-10-13T05:10:13;33.00;;;20.88;;
40162;SDS011;25881;47.462;19.304;2023-10-13T05:12:57;35.53;;;22.65;;
40162;SDS011;25881;47.462;19.304;2023-10-13T05:15:46;32.22;;;20.40;;
40162;SDS011;25881;47.462;19.304;2023-10-13T05:18:30;35.72;;;20.45;;
40162;SDS011;25881;47.462;19.304;2023-10-13T05:21:14;31.45;;;21.67;;
40162;SDS011;25881;47.462;19.304;2023-10-13T05:23:58;35.05;;;21.58;;
40162;SDS011;25881;47.462;19.304;2023-10-13T05:26:42;36.45;;;23.48;;
40162;SDS011;25881;47.462;19.304;2023-10-13T05:29:26;37.10;;;22.33;;
40162;SDS011;25881;47.462;19.304;2023-10-13T05:32:10;29.10;;;21.55;;
40162;SDS011;25881;47.462;19.304;2023-10-13T05:34:54;35.58;;;22.73;;
40162;SDS011;25881;47.462;19.304;2023-10-13T05:37:38;38.22;;;23.23;;
40162;SDS011;25881;47.462;19.304;2023-10-13T05:40:22;36.22;;;23.55;;
40162;SDS011;25881;47.462;19.304;2023-10-13T05:43:06;38.75;;;23.73;;
40162;SDS011;25881;47.462;19.304;2023-10-13T05:45:50;32.90;;;22.15;;
40162;SDS011;25881;47.462;19.304;2023-10-13T05:48:47;38.10;;;23.92;;
40162;SDS011;25881;47.462;19.304;2023-10-13T05:51:25;33.83;;;22.65;;
40162;SDS011;25881;47.462;19.304;2023-10-13T05:54:11;37.95;;;23.15;;
40162;SDS011;25881;47.462;19.304;2023-10-13T05:56:46;33.65;;;21.67;;
40162;SDS011;25881;47.462;19.304;2023-10-13T05:59:30;33.90;;;22.73;;
40162;SDS011;25881;47.462;19.304;2023-10-13T06:02:15;42.50;;;23.02;;
40162;SDS011;25881;47.462;19.304;2023-10-13T06:05:02;35.92;;;23.10;;
40162;SDS011;25881;47.462;19.304;2023-10-13T06:07:47;46.40;;;24.08;;
40162;SDS011;25881;47.462;19.304;2023-10-13T06:10:31;30.27;;;22.00;;
40162;SDS011;25881;47.462;19.304;2023-10-13T06:13:15;31.35;;;22.77;;
40162;SDS011;25881;47.462;19.304;2023-10-13T06:15:59;30.35;;;21.98;;
40162;SDS011;25881;47.462;19.304;2023-10-13T06:18:43;39.08;;;23.20;;
40162;SDS011;25881;47.462;19.304;2023-10-13T06:21:27;37.85;;;23.98;;
40162;SDS011;25881;47.462;19.304;2023-10-13T06:24:10;35.83;;;22.02;;
40162;SDS011;25881;47.462;19.304;2023-10-13T06:26:54;36.47;;;24.00;;
40162;SDS011;25881;47.462;19.304;2023-10-13T06:29:38;33.63;;;23.88;;
40162;SDS011;25881;47.462;19.304;2023-10-13T06:32:03;43.60;;;25.88;;
40162;SDS011;25881;47.462;19.304;2023-10-13T06:34:35;36.80;;;25.95;;
40162;SDS011;25881;47.462;19.304;2023-10-13T06:37:07;37.22;;;24.85;;
40162;SDS011;25881;47.462;19.304;2023-10-13T06:39:55;33.90;;;24.83;;
40162;SDS011;25881;47.462;19.304;2023-10-13T06:42:30;45.70;;;26.63;;
40162;SDS011;25881;47.462;19.304;2023-10-13T06:44:59;40.15;;;24.92;;
40162;SDS011;25881;47.462;19.304;2023-10-13T06:47:33;37.70;;;24.92;;
40162;SDS011;25881;47.462;19.304;2023-10-13T06:49:58;39.03;;;23.87;;
40162;SDS011;25881;47.462;19.304;2023-10-13T06:52:25;37.20;;;25.08;;
40162;SDS011;25881;47.462;19.304;2023-10-13T06:54:54;32.40;;;25.25;;
40162;SDS011;25881;47.462;19.304;2023-10-13T06:57:20;43.47;;;27.58;;
40162;SDS011;25881;47.462;19.304;2023-10-13T06:59:48;36.13;;;24.17;;
40162;SDS011;25881;47.462;19.304;2023-10-13T07:02:14;42.85;;;28.42;;
40162;SDS011;25881;47.462;19.304;2023-10-13T07:04:49;41.92;;;28.20;;
40162;SDS011;25881;47.462;19.304;2023-10-13T07:07:22;34.97;;;26.52;;
40162;SDS011;25881;47.462;19.304;2023-10-13T07:09:48;37.17;;;25.50;;
40162;SDS011;25881;47.462;19.304;2023-10-13T07:12:23;42.17;;;27.92;;
40162;SDS011;25881;47.462;19.304;2023-10-13T07:14:51;37.03;;;24.30;;
40162;SDS011;25881;47.462;19.304;2023-10-13T07:17:46;34.33;;;24.38;;
40162;SDS011;25881;47.462;19.304;2023-10-13T07:20:12;41.30;;;26.23;;
40162;SDS011;25881;47.462;19.304;2023-10-13T07:22:41;45.25;;;28.92;;
40162;SDS011;25881;47.462;19.304;2023-10-13T07:25:19;36.83;;;26.88;;
40162;SDS011;25881;47.462;19.304;2023-10-13T07:27:49;37.17;;;25.65;;
40162;SDS011;25881;47.462;19.304;2023-10-13T07:30:14;36.13;;;25.50;;
40162;SDS011;25881;47.462;19.304;2023-10-13T07:32:42;38.75;;;24.75;;
40162;SDS011;25881;47.462;19.304;2023-10-13T07:35:14;38.28;;;25.13;;
40162;SDS011;25881;47.462;19.304;2023-10-13T07:37:41;33.75;;;23.17;;
40162;SDS011;25881;47.462;19.304;2023-10-13T07:40:07;42.33;;;25.23;;
40162;SDS011;25881;47.462;19.304;2023-10-13T07:42:47;36.58;;;24.63;;
40162;SDS011;25881;47.462;19.304;2023-10-13T07:45:12;43.65;;;27.80;;
40162;SDS011;25881;47.462;19.304;2023-10-13T07:47:37;34.63;;;23.75;;
40162;SDS011;25881;47.462;19.304;2023-10-13T07:50:04;36.17;;;24.42;;
40162;SDS011;25881;47.462;19.304;2023-10-13T07:52:31;36.08;;;25.23;;
40162;SDS011;25881;47.462;19.304;2023-10-13T07:55:06;38.60;;;25.83;;
40162;SDS011;25881;47.462;19.304;2023-10-13T07:57:38;37.25;;;25.10;;
40162;SDS011;25881;47.462;19.304;2023-10-13T08:00:20;41.13;;;25.20;;
40162;SDS011;25881;47.462;19.304;2023-10-13T08:03:03;42.20;;;25.23;;
40162;SDS011;25881;47.462;19.304;2023-10-13T08:05:41;36.72;;;25.55;;
40162;SDS011;25881;47.462;19.304;2023-10-13T08:08:30;42.70;;;27.80;;
40162;SDS011;25881;47.462;19.304;2023-10-13T08:11:02;38.90;;;26.30;;
40162;SDS011;25881;47.462;19.304;2023-10-13T08:13:43;36.05;;;25.35;;
40162;SDS011;25881;47.462;19.304;2023-10-13T08:16:19;38.97;;;25.02;;
40162;SDS011;25881;47.462;19.304;2023-10-13T08:18:50;34.28;;;25.58;;
40162;SDS011;25881;47.462;19.304;2023-10-13T08:21:16;37.53;;;24.48;;
40162;SDS011;25881;47.462;19.304;2023-10-13T08:23:48;35.53;;;24.95;;
40162;SDS011;25881;47.462;19.304;2023-10-13T08:26:22;35.45;;;25.08;;
40162;SDS011;25881;47.462;19.304;2023-10-13T08:29:16;32.90;;;22.47;;
40162;SDS011;25881;47.462;19.304;2023-10-13T08:31:48;37.13;;;23.08;;
40162;SDS011;25881;47.462;19.304;2023-10-13T08:34:29;33.05;;;22.85;;
40162;SDS011;25881;47.462;19.304;2023-10-13T08:36:55;41.40;;;23.38;;
40162;SDS011;25881;47.462;19.304;2023-10-13T08:39:21;34.58;;;23.85;;
40162;SDS011;25881;47.462;19.304;2023-10-13T08:42:06;36.60;;;22.92;;
40162;SDS011;25881;47.462;19.304;2023-10-13T08:44:44;39.60;;;24.98;;
40162;SDS011;25881;47.462;19.304;2023-10-13T08:47:11;35.40;;;23.52;;
40162;SDS011;25881;47.462;19.304;2023-10-13T08:49:42;37.38;;;24.58;;
40162;SDS011;25881;47.462;19.304;2023-10-13T08:52:15;35.30;;;23.00;;
40162;SDS011;25881;47.462;19.304;2023-10-13T08:54:59;42.70;;;25.25;;
40162;SDS011;25881;47.462;19.304;2023-10-13T08:57:38;40.58;;;25.20;;
40162;SDS011;25881;47.462;19.304;2023-10-13T09:00:05;33.55;;;22.98;;
40162;SDS011;25881;47.462;19.304;2023-10-13T09:02:49;35.95;;;24.98;;
40162;SDS011;25881;47.462;19.304;2023-10-13T09:05:33;35.78;;;23.90;;
40162;SDS011;25881;47.462;19.304;2023-10-13T09:08:06;41.67;;;23.92;;
40162;SDS011;25881;47.462;19.304;2023-10-13T09:10:35;46.28;;;28.27;;
40162;SDS011;25881;47.462;19.304;2023-10-13T09:13:09;46.97;;;28.00;;
40162;SDS011;25881;47.462;19.304;2023-10-13T09:15:36;45.75;;;27.33;;
40162;SDS011;25881;47.462;19.304;2023-10-13T09:18:24;41.50;;;24.73;;
40162;SDS011;25881;47.462;19.304;2023-10-13T09:21:07;48.42;;;26.63;;
40162;SDS011;25881;47.462;19.304;2023-10-13T09:23:55;61.40;;;29.23;;
40162;SDS011;25881;47.462;19.304;2023-10-13T09:26:40;47.78;;;28.40;;
40162;SDS011;25881;47.462;19.304;2023-10-13T09:29:18;37.80;;;26.98;;
40162;SDS011;25881;47.462;19.304;2023-10-13T09:31:45;39.37;;;26.83;;
40162;SDS011;25881;47.462;19.304;2023-10-13T09:34:19;49.78;;;27.98;;
40162;SDS011;25881;47.462;19.304;2023-10-13T09:36:45;42.10;;;27.55;;
40162;SDS011;25881;47.462;19.304;2023-10-13T09:39:12;37.00;;;26.00;;
40162;SDS011;25881;47.462;19.304;2023-10-13T09:41:41;45.28;;;28.25;;
40162;SDS011;25881;47.462;19.304;2023-10-13T09:44:07;39.45;;;27.00;;
40162;SDS011;25881;47.462;19.304;2023-10-13T09:46:33;40.88;;;27.02;;
40162;SDS011;25881;47.462;19.304;2023-10-13T09:49:08;43.38;;;26.58;;
40162;SDS011;25881;47.462;19.304;2023-10-13T09:51:39;35.80;;;25.50;;
40162;SDS011;25881;47.462;19.304;2023-10-13T09:54:24;43.83;;;24.38;;
40162;SDS011;25881;47.462;19.304;2023-10-13T09:57:00;40.05;;;25.15;;
40162;SDS011;25881;47.462;19.304;2023-10-13T09:59:32;44.17;;;27.23;;
40162;SDS011;25881;47.462;19.304;2023-10-13T10:02:03;45.22;;;24.95;;
40162;SDS011;25881;47.462;19.304;2023-10-13T10:04:34;38.55;;;23.10;;
40162;SDS011;25881;47.462;19.304;2023-10-13T10:07:09;36.67;;;22.15;;
40162;SDS011;25881;47.462;19.304;2023-10-13T10:09:34;36.95;;;21.63;;
40162;SDS011;25881;47.462;19.304;2023-10-13T10:17:05;38.33;;;20.98;;
40162;SDS011;25881;47.462;19.304;2023-10-13T10:19:49;34.92;;;21.58;;
40162;SDS011;25881;47.462;19.304;2023-10-13T10:22:24;40.38;;;23.58;;
40162;SDS011;25881;47.462;19.304;2023-10-13T10:24:59;37.08;;;20.75;;
40162;SDS011;25881;47.462;19.304;2023-10-13T10:27:28;32.40;;;20.73;;
40162;SDS011;25881;47.462;19.304;2023-10-13T10:29:54;31.58;;;19.40;;
40162;SDS011;25881;47.462;19.304;2023-10-13T10:32:19;33.63;;;19.88;;
40162;SDS011;25881;47.462;19.304;2023-10-13T10:34:44;32.67;;;20.60;;
40162;SDS011;25881;47.462;19.304;2023-10-13T10:37:10;35.73;;;20.43;;
40162;SDS011;25881;47.462;19.304;2023-10-13T10:39:37;39.80;;;20.10;;
40162;SDS011;25881;47.462;19.304;2023-10-13T10:42:12;31.65;;;19.73;;
40162;SDS011;25881;47.462;19.304;2023-10-13T10:44:41;29.63;;;18.60;;
40162;SDS011;25881;47.462;19.304;2023-10-13T10:47:09;39.72;;;19.90;;
40162;SDS011;25881;47.462;19.304;2023-10-13T10:49:37;38.15;;;19.85;;
40162;SDS011;25881;47.462;19.304;2023-10-13T10:52:02;33.80;;;19.58;;
40162;SDS011;25881;47.462;19.304;2023-10-13T10:54:29;33.90;;;18.35;;
40162;SDS011;25881;47.462;19.304;2023-10-13T10:56:58;34.53;;;21.50;;
40162;SDS011;25881;47.462;19.304;2023-10-13T11:02:02;35.58;;;19.75;;
40162;SDS011;25881;47.462;19.304;2023-10-13T11:04:27;37.80;;;18.10;;
40162;SDS011;25881;47.462;19.304;2023-10-13T11:06:58;27.85;;;17.80;;
40162;SDS011;25881;47.462;19.304;2023-10-13T11:09:24;40.60;;;18.90;;
40162;SDS011;25881;47.462;19.304;2023-10-13T11:11:57;31.55;;;19.92;;
40162;SDS011;25881;47.462;19.304;2023-10-13T11:14:26;33.05;;;19.63;;
40162;SDS011;25881;47.462;19.304;2023-10-13T11:16:52;30.10;;;18.23;;
40162;SDS011;25881;47.462;19.304;2023-10-13T11:19:38;44.42;;;18.65;;
40162;SDS011;25881;47.462;19.304;2023-10-13T11:22:13;35.58;;;20.48;;
40162;SDS011;25881;47.462;19.304;2023-10-13T11:25:03;31.33;;;19.83;;
40162;SDS011;25881;47.462;19.304;2023-10-13T11:27:35;29.50;;;17.58;;
40162;SDS011;25881;47.462;19.304;2023-10-13T11:30:12;27.20;;;17.45;;
40162;SDS011;25881;47.462;19.304;2023-10-13T11:32:40;26.50;;;16.70;;
40162;SDS011;25881;47.462;19.304;2023-10-13T11:35:07;27.08;;;16.17;;
40162;SDS011;25881;47.462;19.304;2023-10-13T11:37:35;25.42;;;15.18;;
40162;SDS011;25881;47.462;19.304;2023-10-13T11:40:08;31.20;;;15.70;;
40162;SDS011;25881;47.462;19.304;2023-10-13T11:42:37;27.70;;;15.98;;
40162;SDS011;25881;47.462;19.304;2023-10-13T11:45:02;32.73;;;15.63;;
40162;SDS011;25881;47.462;19.304;2023-10-13T11:47:47;29.23;;;16.77;;
40162;SDS011;25881;47.462;19.304;2023-10-13T11:50:13;34.30;;;16.97;;
40162;SDS011;25881;47.462;19.304;2023-10-13T11:52:38;29.00;;;16.00;;
40162;SDS011;25881;47.462;19.304;2023-10-13T11:55:03;26.97;;;15.10;;
40162;SDS011;25881;47.462;19.304;2023-10-13T11:57:29;34.10;;;15.95;;
40162;SDS011;25881;47.462;19.304;2023-10-13T11:59:54;29.77;;;16.40;;
40162;SDS011;25881;47.462;19.304;2023-10-13T12:02:21;40.28;;;17.02;;
40162;SDS011;25881;47.462;19.304;2023-10-13T12:04:49;29.63;;;15.50;;
40162;SDS011;25881;47.462;19.304;2023-10-13T12:07:20;35.67;;;15.80;;
40162;SDS011;25881;47.462;19.304;2023-10-13T12:09:46;32.85;;;15.25;;
40162;SDS011;25881;47.462;19.304;2023-10-13T12:12:27;35.13;;;14.55;;
40162;SDS011;25881;47.462;19.304;2023-10-13T12:14:52;35.15;;;15.15;;
40162;SDS011;25881;47.462;19.304;2023-10-13T12:17:18;22.85;;;14.93;;
40162;SDS011;25881;47.462;19.304;2023-10-13T12:19:51;27.00;;;14.45;;
40162;SDS011;25881;47.462;19.304;2023-10-13T12:22:16;29.27;;;14.95;;
40162;SDS011;25881;47.462;19.304;2023-10-13T12:24:50;39.97;;;15.77;;
40162;SDS011;25881;47.462;19.304;2023-10-13T12:27:18;35.65;;;14.77;;
40162;SDS011;25881;47.462;19.304;2023-10-13T12:29:44;26.05;;;13.15;;
40162;SDS011;25881;47.462;19.304;2023-10-13T12:32:11;27.50;;;12.35;;
40162;SDS011;25881;47.462;19.304;2023-10-13T12:34:38;31.65;;;13.70;;
40162;SDS011;25881;47.462;19.304;2023-10-13T12:37:22;25.00;;;12.20;;
40162;SDS011;25881;47.462;19.304;2023-10-13T12:40:06;27.73;;;11.95;;
40162;SDS011;25881;47.462;19.304;2023-10-13T12:42:50;26.27;;;12.05;;
40162;SDS011;25881;47.462;19.304;2023-10-13T12:45:44;26.15;;;12.13;;
40162;SDS011;25881;47.462;19.304;2023-10-13T12:48:28;24.20;;;12.02;;
40162;SDS011;25881;47.462;19.304;2023-10-13T12:51:11;24.40;;;12.48;;
40162;SDS011;25881;47.462;19.304;2023-10-13T12:54:09;34.97;;;11.50;;
40162;SDS011;25881;47.462;19.304;2023-10-13T12:56:44;22.92;;;10.90;;
40162;SDS011;25881;47.462;19.304;2023-10-13T12:59:10;20.75;;;11.50;;
40162;SDS011;25881;47.462;19.304;2023-10-13T13:01:38;25.42;;;11.50;;
40162;SDS011;25881;47.462;19.304;2023-10-13T13:04:07;25.48;;;10.70;;
40162;SDS011;25881;47.462;19.304;2023-10-13T13:06:36;20.92;;;11.68;;
40162;SDS011;25881;47.462;19.304;2023-10-13T13:09:02;24.17;;;10.85;;
40162;SDS011;25881;47.462;19.304;2023-10-13T13:11:27;33.43;;;10.63;;
40162;SDS011;25881;47.462;19.304;2023-10-13T13:13:54;23.50;;;8.85;;
40162;SDS011;25881;47.462;19.304;2023-10-13T13:16:19;20.33;;;9.87;;
40162;SDS011;25881;47.462;19.304;2023-10-13T13:18:49;25.30;;;9.80;;
40162;SDS011;25881;47.462;19.304;2023-10-13T13:21:14;22.65;;;8.82;;
40162;SDS011;25881;47.462;19.304;2023-10-13T13:23:48;27.50;;;9.85;;
40162;SDS011;25881;47.462;19.304;2023-10-13T13:26:13;24.92;;;10.20;;
40162;SDS011;25881;47.462;19.304;2023-10-13T13:28:43;25.48;;;9.82;;
40162;SDS011;25881;47.462;19.304;2023-10-13T13:31:08;24.52;;;9.75;;
40162;SDS011;25881;47.462;19.304;2023-10-13T13:33:34;22.50;;;9.20;;
40162;SDS011;25881;47.462;19.304;2023-10-13T13:36:04;20.83;;;8.55;;
40162;SDS011;25881;47.462;19.304;2023-10-13T13:38:29;20.02;;;8.98;;
40162;SDS011;25881;47.462;19.304;2023-10-13T13:40:57;19.83;;;9.23;;
40162;SDS011;25881;47.462;19.304;2023-10-13T13:43:22;20.67;;;7.53;;
40162;SDS011;25881;47.462;19.304;2023-10-13T13:46:17;25.33;;;8.35;;
40162;SDS011;25881;47.462;19.304;2023-10-13T13:48:43;18.27;;;7.28;;
40162;SDS011;25881;47.462;19.304;2023-10-13T13:51:08;22.48;;;7.93;;
40162;SDS011;25881;47.462;19.304;2023-10-13T13:53:43;22.92;;;7.70;;
40162;SDS011;25881;47.462;19.304;2023-10-13T13:56:10;20.42;;;6.95;;
40162;SDS011;25881;47.462;19.304;2023-10-13T13:58:35;20.92;;;7.88;;
40162;SDS011;25881;47.462;19.304;2023-10-13T14:01:03;19.15;;;7.05;;
40162;SDS011;25881;47.462;19.304;2023-10-13T14:03:43;21.00;;;7.60;;
40162;SDS011;25881;47.462;19.304;2023-10-13T14:06:15;13.60;;;6.40;;
40162;SDS011;25881;47.462;19.304;2023-10-13T14:08:48;18.90;;;7.53;;
40162;SDS011;25881;47.462;19.304;2023-10-13T14:11:17;22.02;;;7.72;;
40162;SDS011;25881;47.462;19.304;2023-10-13T14:14:01;14.38;;;6.68;;
40162;SDS011;25881;47.462;19.304;2023-10-13T14:16:29;16.73;;;7.05;;
40162;SDS011;25881;47.462;19.304;2023-10-13T14:18:54;20.25;;;7.45;;
40162;SDS011;25881;47.462;19.304;2023-10-13T14:21:19;17.13;;;6.93;;
40162;SDS011;25881;47.462;19.304;2023-10-13T14:23:49;16.20;;;7.20;;
40162;SDS011;25881;47.462;19.304;2023-10-13T14:26:15;17.85;;;7.35;;
40162;SDS011;25881;47.462;19.304;2023-10-13T14:28:45;25.75;;;8.15;;
40162;SDS011;25881;47.462;19.304;2023-10-13T14:31:32;20.48;;;7.78;;
40162;SDS011;25881;47.462;19.304;2023-10-13T14:33:58;18.50;;;7.30;;
40162;SDS011;25881;47.462;19.304;2023-10-13T14:36:23;17.37;;;7.77;;
40162;SDS011;25881;47.462;19.304;2023-10-13T14:38:53;21.90;;;8.02;;
40162;SDS011;25881;47.462;19.304;2023-10-13T14:41:18;16.00;;;7.22;;
40162;SDS011;25881;47.462;19.304;2023-10-13T14:43:44;18.48;;;7.80;;
40162;SDS011;25881;47.462;19.304;2023-10-13T14:46:15;20.27;;;8.27;;
40162;SDS011;25881;47.462;19.304;2023-10-13T14:48:44;20.48;;;7.57;;
40162;SDS011;25881;47.462;19.304;2023-10-13T14:51:12;13.60;;;6.22;;
40162;SDS011;25881;47.462;19.304;2023-10-13T14:53:46;18.55;;;7.00;;